Kawasaki, Japan
Current Conditions -  °F | °C
As of 9:30 PM on Thursday 23 Oct 2014 (Local Time) from RJTT Reporting Station
Broken Clouds Broken Clouds  
Wind Chill: 59°   Ceiling: 3000
Heat Index: 59°   Visibility: 6mi
Dew Point: 52°   Wind: 14mph
Humidity: 77%   Direction: 360°N
Pressure: 30.12"   Gusts: NA
Location:  35.53°N, 139.7°E
Report Text: RJTT 231230Z 36012KT 9999 FEW015 SCT025 BKN030 15/11 Q1020 NOSIG
Loading
Personal Weather Stations






























Interactive Weather Map New forecast layout! Learn more

10-Day Weather Forecast

Advertisements
Track Severe Weather on mobile